Terminal Aerodrome Forecast
Issued by NWS

Home | Current Version | Previous Version | Text Only | Print | Product List | Glossary On
Versions: 1 2 3 4 5 6 7 8 9 10 11 12 13 14 15 16 17 18 19 20 21 22 23 24 25 26 27 28 29 30 31 32 33 34 35 36
000
FTUS43 KGLD 290956 AAA
TAFMCK
TAF AMD
KMCK 290956Z 2910/3006 30008KT P6SM SCT250
     FM291600 34013KT P6SM SCT020 SCT250
     FM291800 34013G19KT P6SM VCTS SCT050CB
     FM292200 35013KT 6SM -TSRA BKN040CB
     FM300300 03014KT 6SM -SHRA BR OVC020=

USA.gov is the U.S. government's official web portal to all federal, state and local government web resources and services.